Time;durP1;ratioP1;P1;durP2;ratioP2;P2;SDS_P1;SDS_P2;PMS_P1;PMS_P2;Temp;Humidity;BMP_temperature;BMP_pressure;BME280_temperature;BME280_humidity;BME280_pressure;Samples;Min_cycle;Max_cycle;Signal;HPM_P1;HPM_P2
2022/11/22 00:02:17;;;;;;;13.07;4.97;;;;;;;9.84;100.00;97194.72;5095174;28;20110;-46
2022/11/22 00:04:43;;;;;;;12.25;5.38;;;;;;;10.19;100.00;97191.16;5093926;28;20103;-46
2022/11/22 00:07:09;;;;;;;27.65;5.85;;;;;;;10.33;100.00;97200.38;5093775;28;20374;-47
2022/11/22 00:09:34;;;;;;;21.42;5.40;;;;;;;10.28;100.00;97194.19;5093769;28;20141;-47
2022/11/22 00:12:00;;;;;;;20.10;5.40;;;;;;;10.18;100.00;97198.25;5093692;28;20104;-47
2022/11/22 00:14:26;;;;;;;13.10;5.85;;;;;;;10.24;100.00;97206.19;5094992;28;20063;-47
2022/11/22 00:16:51;;;;;;;10.80;5.95;;;;;;;10.18;100.00;97200.88;5094849;28;20028;-47
2022/11/22 00:19:17;;;;;;;9.25;6.10;;;;;;;9.95;100.00;97203.56;5094833;28;20042;-47
2022/11/22 00:21:42;;;;;;;9.80;4.88;;;;;;;9.78;100.00;97200.88;5093487;28;20027;-47
2022/11/22 00:24:10;;;;;;;10.85;5.55;;;;;;;9.71;100.00;97189.72;5094594;28;20042;-47
2022/11/22 00:26:36;;;;;;;11.25;6.22;;;;;;;9.43;99.84;97190.47;5093434;28;20020;-47
2022/11/22 00:29:02;;;;;;;13.27;6.65;;;;;;;9.22;99.62;97186.63;5094642;28;20562;-47
2022/11/22 00:31:27;;;;;;;9.65;5.03;;;;;;;9.14;100.00;97195.59;5093344;28;20032;-47
2022/11/22 00:33:53;;;;;;;12.63;5.07;;;;;;;9.21;100.00;97196.28;5094646;28;20398;-47
2022/11/22 00:36:19;;;;;;;321.20;27.90;;;;;;;9.32;100.00;97195.47;5094515;28;20083;-47
2022/11/22 00:38:44;;;;;;;411.42;32.28;;;;;;;9.86;100.00;97199.69;5093129;28;20115;-47
2022/11/22 00:41:10;;;;;;;70.78;9.25;;;;;;;10.17;100.00;97188.00;5093145;28;20454;-47
2022/11/22 00:43:36;;;;;;;18.00;4.75;;;;;;;10.11;100.00;97199.41;5094685;28;20512;-47
2022/11/22 00:46:01;;;;;;;18.55;5.25;;;;;;;9.94;100.00;97207.19;5094341;28;20024;-47
2022/11/22 00:48:27;;;;;;;11.05;5.55;;;;;;;9.77;100.00;97218.41;5094340;28;20016;-47
2022/11/22 00:50:54;;;;;;;10.15;5.53;;;;;;;9.66;100.00;97219.25;5094269;28;20024;-47
2022/11/22 00:53:21;;;;;;;11.73;5.65;;;;;;;9.53;100.00;97220.25;5094145;28;20032;-47
2022/11/22 00:55:47;;;;;;;9.52;5.78;;;;;;;9.45;100.00;97206.72;5094211;28;20024;-47
2022/11/22 00:58:13;;;;;;;13.75;5.72;;;;;;;9.42;100.00;97210.63;5094051;28;20024;-48
2022/11/22 01:00:39;;;;;;;14.02;7.18;;;;;;;9.41;100.00;97209.00;5094155;28;20403;-47
2022/11/22 01:03:04;;;;;;;13.25;6.32;;;;;;;9.46;100.00;97211.75;5094092;28;20027;-47
2022/11/22 01:05:30;;;;;;;12.68;6.15;;;;;;;9.49;100.00;97213.09;5092597;28;20081;-47
2022/11/22 01:07:56;;;;;;;7.80;5.13;;;;;;;9.36;100.00;97222.00;5094030;28;20031;-47
2022/11/22 01:10:22;;;;;;;7.55;4.60;;;;;;;9.31;100.00;97219.25;5093866;28;20031;-47
2022/11/22 01:12:48;;;;;;;11.05;5.35;;;;;;;9.39;100.00;97226.78;5093887;28;20051;-47
2022/11/22 01:15:13;;;;;;;9.18;4.68;;;;;;;9.66;100.00;97234.97;5092520;28;20119;-47
2022/11/22 01:17:39;;;;;;;9.57;4.97;;;;;;;9.91;100.00;97234.66;5093754;28;20024;-47
2022/11/22 01:20:05;;;;;;;11.57;5.18;;;;;;;9.97;100.00;97244.22;5093744;28;20102;-47
2022/11/22 01:22:31;;;;;;;7.20;4.82;;;;;;;9.91;100.00;97239.91;5093747;28;20501;-47
2022/11/22 01:24:57;;;;;;;18.65;11.25;;;;;;;9.65;100.00;97235.19;5075243;28;20123;-47
2022/11/22 01:27:22;;;;;;;14.45;6.10;;;;;;;9.33;98.66;97241.56;5093595;28;20024;-47
2022/11/22 01:29:48;;;;;;;15.25;10.65;;;;;;;9.12;98.38;97242.16;5093796;28;20073;-47
2022/11/22 01:32:14;;;;;;;10.35;6.47;;;;;;;8.97;98.82;97238.16;5093417;28;20028;-48
2022/11/22 01:34:39;;;;;;;10.63;6.00;;;;;;;8.92;99.29;97238.00;5093469;28;20035;-47
2022/11/22 01:37:05;;;;;;;10.07;5.30;;;;;;;8.96;100.00;97233.94;5092067;28;20078;-48
2022/11/22 01:39:30;;;;;;;9.05;4.68;;;;;;;9.06;100.00;97240.44;5092027;28;20035;-48
2022/11/22 01:41:56;;;;;;;8.45;5.43;;;;;;;9.25;100.00;97225.41;5093259;28;20027;-48
2022/11/22 01:44:28;;;;;;;9.45;4.80;;;;;;;9.28;100.00;97217.91;5093318;28;20482;-48
2022/11/22 01:47:10;;;;;;;7.28;4.85;;;;;;;9.12;100.00;97216.75;5093226;28;20012;-47
2022/11/22 01:49:41;;;;;;;7.85;4.53;;;;;;;9.11;100.00;97215.16;5093430;28;20389;-47
2022/11/22 01:52:13;;;;;;;10.95;4.47;;;;;;;9.08;100.00;97215.63;5093090;28;20012;-48
2022/11/22 01:54:42;;;;;;;11.40;4.20;;;;;;;9.29;100.00;97219.47;5091771;28;20035;-47
2022/11/22 01:57:14;;;;;;;10.90;4.28;;;;;;;9.85;100.00;97224.31;5092872;28;20027;-48
2022/11/22 01:59:45;;;;;;;10.48;4.55;;;;;;;10.18;100.00;97227.09;5091610;28;20028;-48
2022/11/22 02:02:13;;;;;;;8.65;5.13;;;;;;;10.17;100.00;97225.47;5091618;28;20501;-47
2022/11/22 02:04:41;;;;;;;6.30;4.13;;;;;;;9.99;100.00;97234.31;5074758;28;20028;-47
2022/11/22 02:07:18;;;;;;;31.27;22.48;;;;;;;9.88;100.00;97234.34;5091515;28;20058;-47
2022/11/22 02:09:46;;;;;;;13.73;8.20;;;;;;;10.02;100.00;97234.88;5093079;28;20089;-47
2022/11/22 02:12:12;;;;;;;31.73;23.27;;;;;;;9.99;100.00;97246.63;5092703;28;20513;-47
2022/11/22 02:14:39;;;;;;;8.32;5.07;;;;;;;9.93;100.00;97244.94;5092731;28;20118;-47
2022/11/22 02:17:05;;;;;;;9.30;4.03;;;;;;;9.90;100.00;97246.19;5090942;28;20012;-47
2022/11/22 02:19:43;;;;;;;9.25;3.83;;;;;;;9.88;100.00;97236.94;5091165;28;20050;-47
2022/11/22 02:22:54;;;;;;;10.90;4.80;;;;;;;9.76;100.00;97245.66;5092576;28;20088;-47
2022/11/22 02:25:28;;;;;;;7.50;3.40;;;;;;;9.95;100.00;97253.34;5092109;28;20452;-47
2022/11/22 02:27:54;;;;;;;12.45;3.80;;;;;;;10.16;100.00;97249.31;5092467;28;20031;-47
2022/11/22 02:30:20;;;;;;;5.43;3.25;;;;;;;10.41;100.00;97248.25;5092467;28;20024;-47
2022/11/22 02:32:46;;;;;;;7.63;3.17;;;;;;;10.20;99.34;97246.00;5091071;28;20038;-48
2022/11/22 02:35:17;;;;;;;6.90;3.22;;;;;;;10.04;98.81;97246.75;5091023;28;20031;-47
2022/11/22 02:37:42;;;;;;;9.98;4.55;;;;;;;9.90;98.29;97248.00;5092221;28;20069;-47
2022/11/22 02:40:13;;;;;;;12.23;4.35;;;;;;;9.71;97.84;97239.50;5092274;28;20048;-47
2022/11/22 02:42:41;;;;;;;7.13;4.53;;;;;;;9.69;98.60;97231.88;5091164;28;20028;-47
2022/11/22 02:45:07;;;;;;;9.00;4.10;;;;;;;9.86;99.33;97231.16;5092196;28;20028;-47
2022/11/22 02:47:32;;;;;;;6.57;4.03;;;;;;;9.96;99.55;97236.59;5090860;28;20035;-47
2022/11/22 02:49:58;;;;;;;11.00;5.10;;;;;;;9.92;98.70;97227.59;5092156;28;20024;-47
2022/11/22 02:52:24;;;;;;;11.63;4.70;;;;;;;9.87;98.65;97227.50;5092101;28;20107;-48
2022/11/22 02:54:49;;;;;;;12.25;5.20;;;;;;;9.86;98.71;97225.91;5092330;28;20028;-46
2022/11/22 02:57:15;;;;;;;10.77;5.25;;;;;;;9.78;98.28;97238.34;5092044;28;20027;-48
2022/11/22 02:59:40;;;;;;;12.57;5.70;;;;;;;9.79;98.70;97234.69;5090646;28;20023;-47
2022/11/22 03:02:06;;;;;;;10.73;4.93;;;;;;;10.05;100.00;97250.16;5090614;28;20038;-48
2022/11/22 03:04:32;;;;;;;10.27;4.90;;;;;;;10.21;99.82;97228.44;5092010;28;20024;-47
2022/11/22 03:06:58;;;;;;;11.60;5.43;;;;;;;10.30;99.71;97227.06;5091905;28;20551;-47
2022/11/22 03:09:26;;;;;;;9.93;5.20;;;;;;;10.33;98.84;97225.81;5091824;28;20051;-47
2022/11/22 03:11:52;;;;;;;12.55;5.78;;;;;;;10.15;97.57;97227.53;5091890;28;20028;-48
2022/11/22 03:14:18;;;;;;;9.07;5.28;;;;;;;9.96;97.11;97226.09;5091914;28;20040;-48
2022/11/22 03:16:45;;;;;;;10.10;5.18;;;;;;;9.82;97.14;97230.84;5091823;28;20066;-48
2022/11/22 03:19:12;;;;;;;10.60;4.55;;;;;;;9.75;97.44;97233.56;5091689;28;20020;-48
2022/11/22 03:21:39;;;;;;;10.35;4.80;;;;;;;9.56;96.65;97229.50;5090483;28;20490;-47
2022/11/22 03:24:06;;;;;;;11.63;5.38;;;;;;;9.28;95.68;97228.38;5091533;28;20040;-48
2022/11/22 03:26:32;;;;;;;8.65;3.58;;;;;;;9.19;97.34;97229.72;5091744;28;20111;-48
2022/11/22 03:28:57;;;;;;;11.15;4.55;;;;;;;9.34;98.61;97231.91;5093000;28;20166;-47
2022/11/22 03:31:23;;;;;;;12.38;4.22;;;;;;;9.67;99.83;97228.69;5095871;28;20398;-48
2022/11/22 03:33:49;;;;;;;9.18;4.75;;;;;;;9.77;99.30;97228.88;5094587;28;20073;-48
2022/11/22 03:36:15;;;;;;;11.13;3.70;;;;;;;9.96;99.44;97223.50;5095725;28;20027;-48
2022/11/22 03:38:41;;;;;;;13.50;5.00;;;;;;;9.90;97.92;97233.09;5095686;28;20024;-48
2022/11/22 03:41:06;;;;;;;10.48;4.40;;;;;;;9.71;96.82;97244.75;5094352;28;20033;-48
2022/11/22 03:43:32;;;;;;;6.97;4.82;;;;;;;9.53;96.96;97245.66;5095648;28;20474;-47
2022/11/22 03:45:58;;;;;;;22.08;14.18;;;;;;;9.54;98.04;97248.06;5095574;28;20051;-48
2022/11/22 03:48:24;;;;;;;8.35;4.43;;;;;;;9.68;98.63;97256.47;5094256;28;20451;-47
2022/11/22 03:50:49;;;;;;;8.18;4.65;;;;;;;9.63;98.27;97256.34;5094145;28;20612;-47
2022/11/22 03:53:15;;;;;;;7.35;4.72;;;;;;;9.50;97.69;97259.22;5095427;28;20134;-48
2022/11/22 03:55:41;;;;;;;15.15;5.40;;;;;;;9.48;98.52;97262.06;5095593;28;20017;-48
2022/11/22 03:58:06;;;;;;;10.27;4.55;;;;;;;9.63;98.84;97258.97;5095505;28;20032;-47
2022/11/22 04:00:33;;;;;;;11.15;5.10;;;;;;;9.64;97.75;97257.97;5095275;28;20389;-47
2022/11/22 04:02:58;;;;;;;15.40;5.03;;;;;;;9.43;96.08;97253.31;5095233;28;20039;-48
2022/11/22 04:05:27;;;;;;;15.95;4.65;;;;;;;9.24;96.09;97253.41;5093919;28;20028;-47
2022/11/22 04:07:55;;;;;;;6.13;3.10;;;;;;;9.43;97.63;97254.09;5095172;28;20505;-47
2022/11/22 04:10:22;;;;;;;12.27;3.88;;;;;;;9.45;96.82;97256.50;5095086;28;20024;-48
2022/11/22 04:12:48;;;;;;;9.32;3.70;;;;;;;9.18;94.98;97257.72;5095295;28;20395;-48
2022/11/22 04:15:13;;;;;;;11.40;2.70;;;;;;;8.83;93.63;97268.13;5093677;28;20074;-48
2022/11/22 04:17:46;;;;;;;10.80;3.95;;;;;;;8.60;94.27;97267.03;5094868;28;20115;-47
2022/11/22 04:23:12;;;;;;;8.57;2.97;;;;;;;8.56;95.62;97267.72;5095180;28;20109;-47
2022/11/22 04:25:40;;;;;;;10.70;3.67;;;;;;;8.48;95.76;97268.81;5094660;28;20047;-48
2022/11/22 04:28:09;;;;;;;16.05;4.60;;;;;;;8.43;96.28;97275.72;5094769;28;20401;-48
2022/11/22 04:33:20;;;;;;;10.40;4.95;;;;;;;8.54;97.65;97281.00;5094958;28;20521;-47
2022/11/22 04:35:49;;;;;;;8.55;3.70;;;;;;;8.56;97.49;97281.59;5094627;28;20557;-47
2022/11/22 04:38:17;;;;;;;11.15;3.55;;;;;;;8.42;96.40;97285.41;5092986;28;20024;-47
2022/11/22 04:40:43;;;;;;;11.52;3.00;;;;;;;8.27;96.16;97287.56;5094587;28;20050;-48
2022/11/22 04:46:09;;;;;;;10.13;3.40;;;;;;;8.01;96.14;97297.31;5094698;28;20074;-48
2022/11/22 04:48:35;;;;;;;10.00;3.60;;;;;;;8.00;96.70;97308.78;5093031;28;20024;-47
2022/11/22 04:53:45;;;;;;;14.57;4.30;;;;;;;7.97;96.70;97306.59;5094545;28;20042;-47
2022/11/22 04:56:11;;;;;;;10.80;3.58;;;;;;;8.04;97.35;97307.31;5092877;28;20024;-48
2022/11/22 04:58:37;;;;;;;11.63;3.50;;;;;;;8.15;97.74;97311.03;5094180;28;20065;-47
2022/11/22 05:01:03;;;;;;;8.20;2.58;;;;;;;8.23;97.92;97310.75;5094100;28;20023;-47
2022/11/22 05:03:29;;;;;;;10.30;2.20;;;;;;;8.30;97.55;97326.34;5092824;28;20031;-47
2022/11/22 05:05:54;;;;;;;8.73;2.55;;;;;;;8.30;97.41;97315.88;5094053;28;20550;-47
2022/11/22 05:08:20;;;;;;;16.25;3.15;;;;;;;8.36;97.55;97325.47;5094038;28;20059;-47
2022/11/22 05:10:57;;;;;;;6.20;1.75;;;;;;;8.44;97.45;97327.00;5094013;28;20073;-48
2022/11/22 05:13:29;;;;;;;9.02;2.15;;;;;;;8.51;97.21;97325.09;5093993;28;20448;-47
2022/11/22 05:15:56;;;;;;;9.50;3.00;;;;;;;8.75;97.61;97326.81;5075753;28;20035;-47
2022/11/22 05:18:22;;;;;;;5.15;2.03;;;;;;;8.93;96.77;97323.34;5092481;28;20052;-47
2022/11/22 05:20:48;;;;;;;8.38;2.47;;;;;;;8.96;95.72;97330.75;5092410;28;20078;-48
2022/11/22 05:25:59;;;;;;;8.88;3.47;;;;;;;8.95;94.53;97323.09;5092449;28;20465;-48
2022/11/22 05:28:29;;;;;;;11.60;4.40;;;;;;;8.90;94.62;97325.59;5092283;28;20485;-48
2022/11/22 05:30:55;;;;;;;14.52;2.80;;;;;;;8.88;94.96;97338.13;5093491;28;20541;-47
2022/11/22 05:33:21;;;;;;;13.90;2.25;;;;;;;8.85;95.11;97341.94;5093492;28;20463;-48
2022/11/22 05:35:47;;;;;;;9.82;2.72;;;;;;;8.94;95.48;97342.44;5093475;28;20028;-47
2022/11/22 05:38:12;;;;;;;10.70;3.45;;;;;;;9.04;95.83;97345.31;5092047;28;20035;-48
2022/11/22 05:40:38;;;;;;;13.90;2.13;;;;;;;9.28;96.66;97335.72;5092044;28;20114;-48
2022/11/22 05:43:04;;;;;;;4.32;1.35;;;;;;;9.49;95.62;97338.81;5092000;28;20115;-48
2022/11/22 05:45:29;;;;;;;9.75;1.80;;;;;;;9.64;94.26;97339.16;5093247;28;20103;-48
2022/11/22 05:47:56;;;;;;;17.27;2.30;;;;;;;9.67;93.10;97343.94;5093243;28;20054;-47
2022/11/22 05:50:22;;;;;;;8.38;2.08;;;;;;;9.64;93.13;97344.41;5092715;28;20058;-48
2022/11/22 05:52:47;;;;;;;6.28;1.80;;;;;;;9.74;92.61;97349.88;5092998;28;20020;-48
2022/11/22 05:55:13;;;;;;;16.95;2.15;;;;;;;9.60;92.01;97351.91;5091769;28;20486;-48
2022/11/22 05:57:38;;;;;;;6.07;1.88;;;;;;;9.65;92.53;97350.44;5091626;28;20035;-47
2022/11/22 06:00:05;;;;;;;13.90;2.00;;;;;;;9.59;92.17;97362.63;5092965;28;20099;-48
2022/11/22 06:02:31;;;;;;;12.85;1.85;;;;;;;9.57;92.54;97368.06;5092922;28;20035;-47
2022/11/22 06:04:56;;;;;;;10.57;2.40;;;;;;;9.69;93.31;97364.69;5091560;28;20020;-47
2022/11/22 06:07:22;;;;;;;10.73;2.92;;;;;;;9.75;93.12;97369.78;5074671;28;20110;-47
2022/11/22 06:09:47;;;;;;;11.68;3.03;;;;;;;10.00;94.66;97369.59;5092834;28;20174;-47
2022/11/22 06:12:13;;;;;;;13.93;2.85;;;;;;;10.44;95.58;97371.81;5092767;28;20028;-48
2022/11/22 06:14:39;;;;;;;8.73;2.95;;;;;;;10.69;95.33;97368.91;5092727;28;20020;-47
2022/11/22 06:17:05;;;;;;;9.57;2.67;;;;;;;10.56;93.35;97369.97;5091412;28;20398;-47
2022/11/22 06:19:30;;;;;;;6.78;2.58;;;;;;;10.45;93.27;97375.25;5092572;28;20027;-47
2022/11/22 06:21:56;;;;;;;10.10;3.20;;;;;;;10.24;89.52;97379.25;5091255;28;20043;-47
2022/11/22 06:24:21;;;;;;;14.18;3.63;;;;;;;9.75;87.18;97374.25;5090979;28;20537;-48
2022/11/22 06:26:47;;;;;;;10.10;3.83;;;;;;;9.50;88.88;97385.72;5091126;28;20401;-48
2022/11/22 06:29:13;;;;;;;14.18;3.38;;;;;;;9.41;90.77;97392.31;5091266;28;20047;-47
2022/11/22 06:31:38;;;;;;;14.50;3.67;;;;;;;9.40;91.83;97396.75;5092326;28;20021;-48
2022/11/22 06:34:04;;;;;;;8.82;2.95;;;;;;;9.37;92.49;97391.16;5091051;28;20024;-48
2022/11/22 06:36:32;;;;;;;9.30;3.08;;;;;;;9.19;91.27;97389.41;5091053;28;20073;-48
2022/11/22 06:38:59;;;;;;;5.90;2.25;;;;;;;9.05;91.51;97398.47;5090957;28;20032;-47
2022/11/22 06:41:32;;;;;;;8.50;3.00;;;;;;;8.96;92.72;97404.00;5090933;28;20494;-48
2022/11/22 06:43:58;;;;;;;13.40;2.80;;;;;;;8.98;93.81;97415.03;5090978;28;20028;-47
2022/11/22 06:46:26;;;;;;;12.57;2.70;;;;;;;9.00;93.91;97423.47;5092159;28;20026;-48
2022/11/22 06:48:52;;;;;;;8.77;3.00;;;;;;;8.89;94.18;97432.06;5092197;28;20050;-48
2022/11/22 06:51:27;;;;;;;11.23;2.67;;;;;;;8.82;94.74;97431.34;5090847;28;20016;-48
2022/11/22 06:53:54;;;;;;;7.75;2.28;;;;;;;8.78;94.18;97432.81;5092116;28;20078;-47
2022/11/22 06:56:26;;;;;;;9.55;2.70;;;;;;;8.78;94.38;97430.19;5092042;28;20497;-48
2022/11/22 06:58:52;;;;;;;8.60;2.92;;;;;;;8.72;93.67;97433.69;5091963;28;20031;-47
2022/11/22 07:01:22;;;;;;;6.75;2.58;;;;;;;8.67;93.95;97434.34;5090792;28;20024;-48
2022/11/22 07:03:49;;;;;;;7.95;2.30;;;;;;;8.74;94.76;97447.34;5092181;28;20484;-48
2022/11/22 07:06:17;;;;;;;6.40;3.00;;;;;;;8.70;94.25;97451.41;5092006;28;20020;-48
2022/11/22 07:08:44;;;;;;;8.57;2.88;;;;;;;8.68;94.60;97459.47;5091916;28;20081;-47
2022/11/22 07:11:16;;;;;;;10.02;3.13;;;;;;;8.53;92.45;97462.47;5090595;28;20520;-48
2022/11/22 07:13:42;;;;;;;9.82;2.80;;;;;;;8.34;92.37;97458.97;5090561;28;20031;-48
2022/11/22 07:16:11;;;;;;;8.00;2.83;;;;;;;8.23;92.47;97464.13;5091898;28;20552;-47
2022/11/22 07:18:36;;;;;;;12.65;3.92;;;;;;;8.25;93.49;97462.09;5090454;28;20028;-47
2022/11/22 07:21:06;;;;;;;10.90;3.78;;;;;;;8.07;92.18;97468.91;5091721;28;20031;-48
2022/11/22 07:23:31;;;;;;;11.38;3.53;;;;;;;8.11;94.56;97479.69;5090498;28;20032;-48
2022/11/22 07:25:57;;;;;;;11.88;4.70;;;;;;;8.22;95.47;97475.59;5090355;28;20044;-48
2022/11/22 07:28:23;;;;;;;10.38;5.63;;;;;;;8.33;95.66;97475.69;5091741;28;20028;-48
2022/11/22 07:30:49;;;;;;;9.05;4.35;;;;;;;8.36;95.58;97480.47;5091715;28;20058;-48
2022/11/22 07:33:15;;;;;;;7.40;3.75;;;;;;;8.36;94.51;97475.25;5091777;28;20020;-48
2022/11/22 07:35:41;;;;;;;15.48;4.60;;;;;;;8.28;91.54;97477.34;5091684;28;20177;-48
2022/11/22 07:38:07;;;;;;;11.00;4.60;;;;;;;8.33;93.04;97480.09;5091591;28;20027;-48
2022/11/22 07:40:33;;;;;;;15.02;4.25;;;;;;;8.49;94.72;97482.22;5091633;28;20028;-48
2022/11/22 07:42:58;;;;;;;13.65;4.60;;;;;;;8.84;97.07;97491.31;5090312;28;20528;-48
2022/11/22 07:45:24;;;;;;;13.52;4.55;;;;;;;9.19;98.21;97494.09;5091864;28;20457;-48
2022/11/22 07:47:50;;;;;;;14.43;8.27;;;;;;;9.31;97.96;97491.53;5091584;28;20020;-48
2022/11/22 07:50:16;;;;;;;15.50;8.20;;;;;;;9.47;97.79;97490.13;5091519;28;20024;-48
2022/11/22 07:52:41;;;;;;;11.57;5.47;;;;;;;9.58;96.27;97486.75;5091468;28;20058;-48
2022/11/22 07:55:08;;;;;;;25.50;11.90;;;;;;;9.50;93.78;97487.88;5091530;28;20020;-48
2022/11/22 07:57:33;;;;;;;71.13;8.95;;;;;;;9.45;92.09;97484.31;5091320;28;20100;-48
2022/11/22 07:59:59;;;;;;;50.72;7.35;;;;;;;9.44;91.71;97482.69;5090122;28;20032;-48
2022/11/22 08:02:25;;;;;;;30.52;4.50;;;;;;;9.44;92.20;97486.13;5090135;28;20017;-48
2022/11/22 08:04:52;;;;;;;17.33;3.92;;;;;;;9.40;93.08;97483.16;5091404;28;20478;-48
2022/11/22 08:07:17;;;;;;;7.65;3.63;;;;;;;9.43;92.70;97489.75;5091361;28;20047;-48
2022/11/22 08:09:43;;;;;;;12.00;2.75;;;;;;;9.38;89.78;97490.44;5091380;28;20024;-47
2022/11/22 08:12:09;;;;;;;13.55;3.58;;;;;;;9.25;87.77;97495.03;5073145;28;20031;-48
2022/11/22 08:14:35;;;;;;;11.50;3.67;;;;;;;9.22;90.21;97505.97;5093061;28;20035;-48
2022/11/22 08:17:01;;;;;;;8.45;3.45;;;;;;;9.31;92.09;97505.41;5093715;28;20114;-47
2022/11/22 08:19:26;;;;;;;20.33;4.07;;;;;;;9.48;91.97;97510.06;5095134;28;20066;-48
2022/11/22 08:21:53;;;;;;;13.52;4.93;;;;;;;9.59;90.18;97507.47;5093599;28;20024;-48
2022/11/22 08:24:18;;;;;;;15.77;5.28;;;;;;;9.83;92.09;97504.91;5094669;28;20040;-48
2022/11/22 08:26:44;;;;;;;13.07;4.65;;;;;;;10.05;93.00;97501.78;5093480;28;20031;-47
2022/11/22 08:29:11;;;;;;;11.50;4.70;;;;;;;10.11;91.54;97506.13;5094838;28;20225;-47
2022/11/22 08:31:37;;;;;;;30.25;27.23;;;;;;;10.28;92.24;97514.91;5094755;28;20031;-47
2022/11/22 08:34:04;;;;;;;18.73;13.82;;;;;;;10.31;89.96;97516.31;5093371;28;20032;-48
2022/11/22 08:36:30;;;;;;;18.48;13.57;;;;;;;10.46;91.19;97516.63;5093233;28;20028;-47
2022/11/22 08:38:56;;;;;;;13.60;5.60;;;;;;;10.46;89.67;97515.84;5094569;28;20032;-48
2022/11/22 08:41:22;;;;;;;10.82;5.90;;;;;;;10.34;87.29;97511.41;5094601;28;20024;-48
2022/11/22 08:43:51;;;;;;;9.73;3.78;;;;;;;10.24;86.50;97523.44;5094457;28;20035;-47
2022/11/22 08:46:18;;;;;;;6.75;3.15;;;;;;;10.27;87.94;97521.19;5093154;28;20060;-48
2022/11/22 08:48:45;;;;;;;11.98;3.95;;;;;;;10.37;88.53;97520.66;5094398;28;20035;-48
2022/11/22 08:51:12;;;;;;;11.52;3.70;;;;;;;10.27;88.96;97526.41;5076175;28;20063;-48
2022/11/22 08:53:42;;;;;;;14.10;4.70;;;;;;;10.24;90.98;97526.88;5093026;28;20056;-48
2022/11/22 08:56:11;;;;;;;15.73;5.03;;;;;;;10.42;92.13;97530.44;5092960;28;20028;-48
2022/11/22 08:58:37;;;;;;;11.05;4.95;;;;;;;10.54;92.26;97520.75;5092794;28;20016;-48
2022/11/22 09:01:17;;;;;;;14.60;4.55;;;;;;;10.67;93.25;97531.03;5092875;28;20101;-48
2022/11/22 09:03:43;;;;;;;16.92;5.10;;;;;;;10.67;91.38;97527.59;5092900;28;20024;-48
2022/11/22 09:06:12;;;;;;;11.07;3.90;;;;;;;10.47;88.80;97515.63;5092763;28;20028;-48
2022/11/22 09:08:39;;;;;;;10.25;4.18;;;;;;;10.31;88.54;97504.00;5094055;28;20024;-48
2022/11/22 09:11:08;;;;;;;9.30;3.70;;;;;;;10.31;89.80;97508.44;5093981;28;20051;-48
2022/11/22 09:13:34;;;;;;;14.50;4.38;;;;;;;10.72;92.03;97525.06;5076101;28;20375;-47
2022/11/22 09:16:05;;;;;;;11.27;3.90;;;;;;;12.14;92.46;97523.56;5092552;28;20028;-47
2022/11/22 09:18:31;;;;;;;10.15;4.47;;;;;;;12.58;87.44;97518.44;5093716;28;20024;-48
2022/11/22 09:20:59;;;;;;;12.52;6.78;;;;;;;12.95;87.95;97523.13;5093778;28;20024;-48
2022/11/22 09:23:25;;;;;;;9.90;4.22;;;;;;;13.10;86.25;97535.72;5092437;28;20021;-47
2022/11/22 09:26:03;;;;;;;9.15;3.65;;;;;;;12.87;80.49;97541.19;5090914;28;20070;-47
2022/11/22 09:28:29;;;;;;;11.60;3.20;;;;;;;12.57;78.89;97537.88;5093598;28;20020;-48
2022/11/22 09:30:59;;;;;;;11.98;3.90;;;;;;;12.49;82.60;97540.94;5093545;28;20164;-48
2022/11/22 09:33:25;;;;;;;16.08;4.78;;;;;;;12.41;84.00;97536.06;5093501;28;20024;-48
2022/11/22 09:35:50;;;;;;;11.98;4.47;;;;;;;12.28;82.36;97531.16;5092192;28;20035;-47
2022/11/22 09:38:16;;;;;;;8.82;3.70;;;;;;;12.08;80.76;97534.25;5093377;28;20509;-48
2022/11/22 09:40:46;;;;;;;11.20;5.00;;;;;;;11.86;74.02;97527.00;5093362;28;20027;-47
2022/11/22 09:43:56;;;;;;;21.27;9.95;;;;;;;11.66;77.08;97529.28;5092003;28;20165;-47
2022/11/22 09:46:46;;;;;;;15.15;6.00;;;;;;;11.66;79.63;97534.56;5030897;28;20071;-47
2022/11/22 09:49:45;;;;;;;16.75;4.95;;;;;;;11.22;81.32;97529.00;5014288;28;20036;-47
2022/11/22 09:52:21;;;;;;;12.43;5.13;;;;;;;11.28;82.42;97533.31;5014192;28;20515;-47
2022/11/22 09:54:55;;;;;;;16.20;5.20;;;;;;;11.33;80.83;97528.97;5014341;28;20049;-47
2022/11/22 09:57:28;;;;;;;13.80;5.75;;;;;;;11.34;82.12;97529.75;4997662;28;20032;-47
2022/11/22 10:00:07;;;;;;;16.00;5.45;;;;;;;11.16;80.35;97538.59;5030666;28;20029;-48
2022/11/22 10:02:39;;;;;;;19.25;5.20;;;;;;;11.03;81.99;97541.47;5014117;28;20034;-47
2022/11/22 10:05:16;;;;;;;15.80;4.45;;;;;;;11.96;85.72;97540.38;5014014;28;20033;-47
2022/11/22 10:07:49;;;;;;;12.77;3.70;;;;;;;13.30;83.33;97529.91;5013906;28;20476;-48
2022/11/22 10:10:33;;;;;;;7.50;3.33;;;;;;;15.03;74.60;97515.75;5013902;28;20056;-48
2022/11/22 10:13:10;;;;;;;35.97;6.43;;;;;;;16.14;71.76;97512.81;5030474;28;20045;-48
2022/11/22 10:15:59;;;;;;;13.95;3.70;;;;;;;15.45;63.31;97509.50;5013824;28;20029;-48
2022/11/22 10:18:53;;;;;;;7.95;2.92;;;;;;;14.29;64.88;97513.97;5013760;28;20068;-48
2022/11/22 10:21:19;;;;;;;7.53;2.97;;;;;;;13.60;65.56;97523.38;5071375;28;20127;-48
2022/11/22 10:23:46;;;;;;;20.67;4.57;;;;;;;13.12;67.09;97525.72;5091010;28;20111;-49
2022/11/22 10:26:28;;;;;;;13.93;4.15;;;;;;;13.06;66.59;97531.16;5091249;28;20062;-48
2022/11/22 10:29:28;;;;;;;24.67;7.53;;;;;;;12.99;68.96;97526.88;5091181;28;20024;-48
2022/11/22 10:32:13;;;;;;;25.20;13.93;;;;;;;13.07;68.33;97527.50;5092561;28;20152;-48
2022/11/22 10:35:13;;;;;;;23.03;13.60;;;;;;;13.14;68.96;97523.63;5092703;28;20059;-48
2022/11/22 10:37:52;;;;;;;7.32;1.40;;;;;;;13.14;67.44;97520.22;5092163;28;20409;-48
2022/11/22 10:40:42;;;;;;;10.48;2.67;;;;;;;13.08;71.50;97522.00;5092599;28;20401;-48
2022/11/22 10:43:41;;;;;;;13.55;3.20;;;;;;;12.90;65.42;97507.28;5092357;28;20034;-48
2022/11/22 10:46:20;;;;;;;6.10;2.58;;;;;;;12.76;67.63;97498.16;5090968;28;20042;-48
2022/11/22 10:49:12;;;;;;;13.38;6.10;;;;;;;12.58;71.10;97496.59;5090990;28;20059;-48
2022/11/22 10:52:05;;;;;;;10.57;3.67;;;;;;;12.69;71.01;97500.16;5088954;28;20043;-48
2022/11/22 10:55:04;;;;;;;8.90;3.38;;;;;;;12.70;70.18;97493.84;5090804;28;20028;-48
2022/11/22 10:57:36;;;;;;;6.90;2.22;;;;;;;12.64;68.70;97481.66;5077433;28;20032;-48
2022/11/22 11:00:23;;;;;;;9.40;2.58;;;;;;;12.59;65.68;97477.91;5090583;28;20024;-48
2022/11/22 11:03:08;;;;;;;6.72;2.13;;;;;;;12.51;68.16;97480.16;5091940;28;20020;-48
2022/11/22 11:05:48;;;;;;;15.18;3.40;;;;;;;12.45;69.01;97478.50;5091990;28;20024;-48
2022/11/22 11:08:28;;;;;;;6.55;2.50;;;;;;;12.68;69.40;97488.03;5090700;28;20040;-48
2022/11/22 11:10:54;;;;;;;8.05;2.65;;;;;;;12.74;68.80;97485.22;5090626;28;20028;-48
2022/11/22 11:13:25;;;;;;;4.28;1.70;;;;;;;12.82;68.72;97488.47;5090552;28;20427;-48
2022/11/22 11:15:54;;;;;;;5.20;1.90;;;;;;;12.72;69.94;97483.88;5091893;28;20081;-48
2022/11/22 11:18:42;;;;;;;7.25;2.40;;;;;;;12.56;66.14;97488.94;5090541;28;20036;-48
2022/11/22 11:21:12;;;;;;;8.55;2.60;;;;;;;12.58;70.75;97489.47;5091829;28;20482;-48
2022/11/22 11:23:39;;;;;;;8.25;2.40;;;;;;;12.70;69.13;97481.50;5090289;28;20054;-48
2022/11/22 11:26:34;;;;;;;7.60;2.13;;;;;;;12.81;65.86;97478.97;5091737;28;20044;-48
2022/11/22 11:29:18;;;;;;;6.53;1.90;;;;;;;12.59;69.31;97471.84;5087185;28;20079;-48
2022/11/22 11:31:46;;;;;;;5.15;1.42;;;;;;;12.46;66.59;97473.00;5091694;28;20117;-48
2022/11/22 11:34:26;;;;;;;13.07;1.63;;;;;;;12.19;61.94;97468.44;5090373;28;20028;-48
2022/11/22 11:36:55;;;;;;;14.52;1.75;;;;;;;12.06;64.74;97468.75;5090385;28;20047;-48
2022/11/22 11:39:26;;;;;;;5.22;1.30;;;;;;;12.03;65.29;97465.78;5091544;28;20428;-48
2022/11/22 11:41:52;;;;;;;3.47;1.10;;;;;;;12.05;64.46;97472.38;5090338;28;20028;-47
2022/11/22 11:44:35;;;;;;;7.38;1.65;;;;;;;11.96;67.13;97479.09;5090291;28;20028;-48
2022/11/22 11:47:02;;;;;;;6.70;1.65;;;;;;;11.92;68.70;97480.63;5090296;28;20027;-47
2022/11/22 11:49:31;;;;;;;10.85;1.55;;;;;;;11.93;72.65;97484.81;5093319;28;20020;-47
2022/11/22 11:52:19;;;;;;;9.02;1.55;;;;;;;11.84;75.19;97487.03;5095519;28;20055;-47
2022/11/22 11:54:48;;;;;;;6.55;1.40;;;;;;;11.84;79.30;97480.97;5094238;28;20584;-46
2022/11/22 11:57:18;;;;;;;5.93;1.65;;;;;;;11.98;82.01;97482.28;5095388;28;20024;-47